Terminal Aerodrome Forecast
Issued by NWS Shreveport, LA

Home | Current Version | Previous Version | Text Only | Print | Product List | Glossary On
Versions: 1 2 3 4 5 6 7 8 9 10 11 12 13 14 15 16 17 18
000
FTUS44 KSHV 050535
TAFTXK
TAF
KTXK 050535Z 0506/0606 18006KT P6SM BKN250
      TEMPO 0509/0513 1SM BR BKN012
     FM051400 19008KT P6SM SCT040
     FM051800 19008KT P6SM VCTS BKN050CB
     FM060000 17005KT P6SM BKN250=

USA.gov is the U.S. government's official web portal to all federal, state and local government web resources and services.